sensor_id;sensor_type;location;lat;lon;timestamp;P1;durP1;ratioP1;P2;durP2;ratioP2
59504;SDS011;45321;53.200;5.814;2024-03-07T00:01:49;31.25;;;25.33;;
59504;SDS011;45321;53.200;5.814;2024-03-07T00:04:15;33.40;;;26.20;;
59504;SDS011;45321;53.200;5.814;2024-03-07T00:06:40;30.45;;;23.95;;
59504;SDS011;45321;53.200;5.814;2024-03-07T00:09:06;33.70;;;26.17;;
59504;SDS011;45321;53.200;5.814;2024-03-07T00:11:34;35.63;;;26.27;;
59504;SDS011;45321;53.200;5.814;2024-03-07T00:14:00;32.00;;;25.80;;
59504;SDS011;45321;53.200;5.814;2024-03-07T00:16:26;34.28;;;25.20;;
59504;SDS011;45321;53.200;5.814;2024-03-07T00:18:52;35.13;;;26.13;;
59504;SDS011;45321;53.200;5.814;2024-03-07T00:21:18;32.65;;;25.08;;
59504;SDS011;45321;53.200;5.814;2024-03-07T00:23:44;37.97;;;26.17;;
59504;SDS011;45321;53.200;5.814;2024-03-07T00:26:10;30.63;;;24.70;;
59504;SDS011;45321;53.200;5.814;2024-03-07T00:28:35;33.28;;;25.20;;
59504;SDS011;45321;53.200;5.814;2024-03-07T00:31:04;31.92;;;24.27;;
59504;SDS011;45321;53.200;5.814;2024-03-07T00:33:32;32.08;;;24.60;;
59504;SDS011;45321;53.200;5.814;2024-03-07T00:35:58;32.63;;;24.63;;
59504;SDS011;45321;53.200;5.814;2024-03-07T00:38:25;33.70;;;25.05;;
59504;SDS011;45321;53.200;5.814;2024-03-07T00:40:51;34.85;;;26.25;;
59504;SDS011;45321;53.200;5.814;2024-03-07T00:43:17;39.05;;;25.30;;
59504;SDS011;45321;53.200;5.814;2024-03-07T00:45:42;35.20;;;25.30;;
59504;SDS011;45321;53.200;5.814;2024-03-07T00:48:08;32.08;;;24.98;;
59504;SDS011;45321;53.200;5.814;2024-03-07T00:50:36;30.20;;;24.77;;
59504;SDS011;45321;53.200;5.814;2024-03-07T00:53:02;28.83;;;23.83;;
59504;SDS011;45321;53.200;5.814;2024-03-07T00:55:27;32.95;;;25.23;;
59504;SDS011;45321;53.200;5.814;2024-03-07T00:57:53;31.63;;;24.40;;
59504;SDS011;45321;53.200;5.814;2024-03-07T01:00:24;29.85;;;22.95;;
59504;SDS011;45321;53.200;5.814;2024-03-07T01:02:50;31.38;;;24.20;;
59504;SDS011;45321;53.200;5.814;2024-03-07T01:05:18;31.25;;;23.30;;
59504;SDS011;45321;53.200;5.814;2024-03-07T01:07:45;31.80;;;24.13;;
59504;SDS011;45321;53.200;5.814;2024-03-07T01:10:15;33.00;;;23.65;;
59504;SDS011;45321;53.200;5.814;2024-03-07T01:12:41;31.00;;;22.95;;
59504;SDS011;45321;53.200;5.814;2024-03-07T01:15:08;31.58;;;22.55;;
59504;SDS011;45321;53.200;5.814;2024-03-07T01:17:35;29.20;;;24.40;;
59504;SDS011;45321;53.200;5.814;2024-03-07T01:20:01;29.17;;;22.83;;
59504;SDS011;45321;53.200;5.814;2024-03-07T01:22:27;30.13;;;24.08;;
59504;SDS011;45321;53.200;5.814;2024-03-07T01:24:53;30.23;;;23.17;;
59504;SDS011;45321;53.200;5.814;2024-03-07T01:27:19;33.38;;;24.00;;
59504;SDS011;45321;53.200;5.814;2024-03-07T01:29:45;31.70;;;22.60;;
59504;SDS011;45321;53.200;5.814;2024-03-07T01:32:11;30.05;;;22.05;;
59504;SDS011;45321;53.200;5.814;2024-03-07T01:34:37;28.55;;;22.52;;
59504;SDS011;45321;53.200;5.814;2024-03-07T01:37:02;29.42;;;23.25;;
59504;SDS011;45321;53.200;5.814;2024-03-07T01:39:28;28.42;;;21.88;;
59504;SDS011;45321;53.200;5.814;2024-03-07T01:41:54;30.10;;;23.38;;
59504;SDS011;45321;53.200;5.814;2024-03-07T01:44:20;27.38;;;21.05;;
59504;SDS011;45321;53.200;5.814;2024-03-07T01:46:45;28.00;;;21.55;;
59504;SDS011;45321;53.200;5.814;2024-03-07T01:49:12;30.77;;;22.90;;
59504;SDS011;45321;53.200;5.814;2024-03-07T01:51:38;34.13;;;22.02;;
59504;SDS011;45321;53.200;5.814;2024-03-07T01:54:05;29.77;;;21.52;;
59504;SDS011;45321;53.200;5.814;2024-03-07T01:56:33;27.63;;;21.63;;
59504;SDS011;45321;53.200;5.814;2024-03-07T01:59:01;27.42;;;22.33;;
59504;SDS011;45321;53.200;5.814;2024-03-07T02:01:30;34.70;;;23.40;;
59504;SDS011;45321;53.200;5.814;2024-03-07T02:03:56;26.42;;;21.10;;
59504;SDS011;45321;53.200;5.814;2024-03-07T02:06:23;26.23;;;21.55;;
59504;SDS011;45321;53.200;5.814;2024-03-07T02:08:49;31.63;;;22.02;;
59504;SDS011;45321;53.200;5.814;2024-03-07T02:11:15;31.55;;;22.27;;
59504;SDS011;45321;53.200;5.814;2024-03-07T02:13:40;28.70;;;22.10;;
59504;SDS011;45321;53.200;5.814;2024-03-07T02:16:06;29.70;;;20.95;;
59504;SDS011;45321;53.200;5.814;2024-03-07T02:18:33;29.77;;;20.73;;
59504;SDS011;45321;53.200;5.814;2024-03-07T02:21:00;27.25;;;21.05;;
59504;SDS011;45321;53.200;5.814;2024-03-07T02:23:30;27.60;;;21.52;;
59504;SDS011;45321;53.200;5.814;2024-03-07T02:25:57;26.42;;;20.92;;
59504;SDS011;45321;53.200;5.814;2024-03-07T02:28:24;26.20;;;20.35;;
59504;SDS011;45321;53.200;5.814;2024-03-07T02:30:49;26.42;;;20.60;;
59504;SDS011;45321;53.200;5.814;2024-03-07T02:33:15;32.22;;;21.02;;
59504;SDS011;45321;53.200;5.814;2024-03-07T02:35:41;27.05;;;20.65;;
59504;SDS011;45321;53.200;5.814;2024-03-07T02:38:07;27.20;;;21.05;;
59504;SDS011;45321;53.200;5.814;2024-03-07T02:40:33;29.58;;;22.15;;
59504;SDS011;45321;53.200;5.814;2024-03-07T02:42:59;30.27;;;21.73;;
59504;SDS011;45321;53.200;5.814;2024-03-07T02:45:25;30.23;;;21.55;;
59504;SDS011;45321;53.200;5.814;2024-03-07T02:47:51;27.23;;;20.40;;
59504;SDS011;45321;53.200;5.814;2024-03-07T02:50:18;28.65;;;21.60;;
59504;SDS011;45321;53.200;5.814;2024-03-07T02:52:47;28.77;;;20.98;;
59504;SDS011;45321;53.200;5.814;2024-03-07T02:55:13;28.95;;;22.20;;
59504;SDS011;45321;53.200;5.814;2024-03-07T02:57:39;25.45;;;20.98;;
59504;SDS011;45321;53.200;5.814;2024-03-07T03:00:05;27.10;;;20.88;;
59504;SDS011;45321;53.200;5.814;2024-03-07T03:02:44;27.88;;;20.48;;
59504;SDS011;45321;53.200;5.814;2024-03-07T03:05:14;25.73;;;20.50;;
59504;SDS011;45321;53.200;5.814;2024-03-07T03:07:40;29.65;;;21.55;;
59504;SDS011;45321;53.200;5.814;2024-03-07T03:10:07;28.10;;;21.42;;
59504;SDS011;45321;53.200;5.814;2024-03-07T03:12:36;27.52;;;21.50;;
59504;SDS011;45321;53.200;5.814;2024-03-07T03:15:03;26.98;;;20.83;;
59504;SDS011;45321;53.200;5.814;2024-03-07T03:17:30;26.02;;;20.65;;
59504;SDS011;45321;53.200;5.814;2024-03-07T03:19:56;27.05;;;21.27;;
59504;SDS011;45321;53.200;5.814;2024-03-07T03:22:21;29.30;;;21.45;;
59504;SDS011;45321;53.200;5.814;2024-03-07T03:24:47;26.20;;;21.05;;
59504;SDS011;45321;53.200;5.814;2024-03-07T03:27:13;28.98;;;21.38;;
59504;SDS011;45321;53.200;5.814;2024-03-07T03:29:39;26.23;;;20.95;;
59504;SDS011;45321;53.200;5.814;2024-03-07T03:32:05;28.67;;;21.40;;
59504;SDS011;45321;53.200;5.814;2024-03-07T03:34:32;31.15;;;21.10;;
59504;SDS011;45321;53.200;5.814;2024-03-07T03:36:59;29.83;;;21.45;;
59504;SDS011;45321;53.200;5.814;2024-03-07T03:39:24;26.75;;;19.42;;
59504;SDS011;45321;53.200;5.814;2024-03-07T03:41:52;28.23;;;21.77;;
59504;SDS011;45321;53.200;5.814;2024-03-07T03:44:18;29.63;;;20.98;;
59504;SDS011;45321;53.200;5.814;2024-03-07T03:46:43;26.92;;;21.10;;
59504;SDS011;45321;53.200;5.814;2024-03-07T03:49:09;29.60;;;21.08;;
59504;SDS011;45321;53.200;5.814;2024-03-07T03:51:35;28.30;;;20.55;;
59504;SDS011;45321;53.200;5.814;2024-03-07T03:54:01;27.73;;;21.00;;
59504;SDS011;45321;53.200;5.814;2024-03-07T03:56:27;30.65;;;21.85;;
59504;SDS011;45321;53.200;5.814;2024-03-07T03:58:53;28.38;;;20.98;;
59504;SDS011;45321;53.200;5.814;2024-03-07T04:01:19;30.75;;;21.45;;
59504;SDS011;45321;53.200;5.814;2024-03-07T04:03:45;27.02;;;20.60;;
59504;SDS011;45321;53.200;5.814;2024-03-07T04:06:13;31.88;;;21.05;;
59504;SDS011;45321;53.200;5.814;2024-03-07T04:08:39;29.48;;;21.63;;
59504;SDS011;45321;53.200;5.814;2024-03-07T04:11:04;28.90;;;22.17;;
59504;SDS011;45321;53.200;5.814;2024-03-07T04:13:34;26.92;;;20.70;;
59504;SDS011;45321;53.200;5.814;2024-03-07T04:16:00;23.65;;;18.90;;
59504;SDS011;45321;53.200;5.814;2024-03-07T04:18:26;28.02;;;21.38;;
59504;SDS011;45321;53.200;5.814;2024-03-07T04:20:51;27.33;;;22.02;;
59504;SDS011;45321;53.200;5.814;2024-03-07T04:23:17;28.75;;;21.25;;
59504;SDS011;45321;53.200;5.814;2024-03-07T04:25:43;27.58;;;20.92;;
59504;SDS011;45321;53.200;5.814;2024-03-07T04:28:09;25.02;;;19.30;;
59504;SDS011;45321;53.200;5.814;2024-03-07T04:30:35;25.10;;;19.27;;
59504;SDS011;45321;53.200;5.814;2024-03-07T04:33:01;26.92;;;19.80;;
59504;SDS011;45321;53.200;5.814;2024-03-07T04:35:26;25.70;;;19.92;;
59504;SDS011;45321;53.200;5.814;2024-03-07T04:37:52;29.67;;;20.65;;
59504;SDS011;45321;53.200;5.814;2024-03-07T04:40:18;26.75;;;20.58;;
59504;SDS011;45321;53.200;5.814;2024-03-07T04:42:48;24.60;;;19.48;;
59504;SDS011;45321;53.200;5.814;2024-03-07T04:45:19;27.65;;;20.20;;
59504;SDS011;45321;53.200;5.814;2024-03-07T04:47:46;25.05;;;20.13;;
59504;SDS011;45321;53.200;5.814;2024-03-07T04:50:12;27.77;;;19.27;;
59504;SDS011;45321;53.200;5.814;2024-03-07T04:52:42;27.65;;;19.67;;
59504;SDS011;45321;53.200;5.814;2024-03-07T04:55:09;24.75;;;19.85;;
59504;SDS011;45321;53.200;5.814;2024-03-07T04:57:36;25.83;;;19.15;;
59504;SDS011;45321;53.200;5.814;2024-03-07T05:00:05;24.73;;;18.10;;
59504;SDS011;45321;53.200;5.814;2024-03-07T05:02:41;27.38;;;19.38;;
59504;SDS011;45321;53.200;5.814;2024-03-07T05:05:07;25.73;;;19.73;;
59504;SDS011;45321;53.200;5.814;2024-03-07T05:07:33;25.35;;;18.88;;
59504;SDS011;45321;53.200;5.814;2024-03-07T05:09:59;25.08;;;18.58;;
59504;SDS011;45321;53.200;5.814;2024-03-07T05:12:25;25.85;;;19.50;;
59504;SDS011;45321;53.200;5.814;2024-03-07T05:14:51;21.98;;;17.52;;
59504;SDS011;45321;53.200;5.814;2024-03-07T05:17:16;24.83;;;18.65;;
59504;SDS011;45321;53.200;5.814;2024-03-07T05:19:44;22.02;;;17.48;;
59504;SDS011;45321;53.200;5.814;2024-03-07T05:22:11;25.23;;;19.33;;
59504;SDS011;45321;53.200;5.814;2024-03-07T05:24:40;24.20;;;19.80;;
59504;SDS011;45321;53.200;5.814;2024-03-07T05:27:07;23.73;;;18.73;;
59504;SDS011;45321;53.200;5.814;2024-03-07T05:29:36;29.83;;;19.50;;
59504;SDS011;45321;53.200;5.814;2024-03-07T05:32:21;24.00;;;18.98;;
59504;SDS011;45321;53.200;5.814;2024-03-07T05:34:48;24.35;;;19.25;;
59504;SDS011;45321;53.200;5.814;2024-03-07T05:37:14;27.90;;;19.95;;
59504;SDS011;45321;53.200;5.814;2024-03-07T05:39:40;26.00;;;19.30;;
59504;SDS011;45321;53.200;5.814;2024-03-07T05:42:05;26.42;;;19.45;;
59504;SDS011;45321;53.200;5.814;2024-03-07T05:44:32;23.95;;;18.20;;
59504;SDS011;45321;53.200;5.814;2024-03-07T05:46:58;26.50;;;20.80;;
59504;SDS011;45321;53.200;5.814;2024-03-07T05:49:24;29.70;;;21.75;;
59504;SDS011;45321;53.200;5.814;2024-03-07T05:51:50;25.30;;;20.05;;
59504;SDS011;45321;53.200;5.814;2024-03-07T05:54:15;27.50;;;20.95;;
59504;SDS011;45321;53.200;5.814;2024-03-07T05:56:41;27.88;;;20.83;;
59504;SDS011;45321;53.200;5.814;2024-03-07T05:59:07;28.52;;;22.17;;
59504;SDS011;45321;53.200;5.814;2024-03-07T06:01:36;27.80;;;19.73;;
59504;SDS011;45321;53.200;5.814;2024-03-07T06:04:03;29.08;;;20.63;;
59504;SDS011;45321;53.200;5.814;2024-03-07T06:06:34;25.52;;;19.85;;
59504;SDS011;45321;53.200;5.814;2024-03-07T06:09:01;26.17;;;20.45;;
59504;SDS011;45321;53.200;5.814;2024-03-07T06:11:38;24.88;;;19.75;;
59504;SDS011;45321;53.200;5.814;2024-03-07T06:14:04;25.98;;;20.50;;
59504;SDS011;45321;53.200;5.814;2024-03-07T06:16:31;25.50;;;20.60;;
59504;SDS011;45321;53.200;5.814;2024-03-07T06:19:02;27.55;;;20.20;;
59504;SDS011;45321;53.200;5.814;2024-03-07T06:21:29;24.75;;;20.65;;
59504;SDS011;45321;53.200;5.814;2024-03-07T06:23:57;28.25;;;21.77;;
59504;SDS011;45321;53.200;5.814;2024-03-07T06:26:32;29.23;;;22.40;;
59504;SDS011;45321;53.200;5.814;2024-03-07T06:29:25;30.40;;;23.17;;
59504;SDS011;45321;53.200;5.814;2024-03-07T06:31:54;28.70;;;22.20;;
59504;SDS011;45321;53.200;5.814;2024-03-07T06:34:19;27.15;;;22.13;;
59504;SDS011;45321;53.200;5.814;2024-03-07T06:36:45;33.47;;;22.52;;
59504;SDS011;45321;53.200;5.814;2024-03-07T06:39:11;31.70;;;22.60;;
59504;SDS011;45321;53.200;5.814;2024-03-07T06:41:37;29.98;;;23.50;;
59504;SDS011;45321;53.200;5.814;2024-03-07T06:44:03;33.40;;;22.98;;
59504;SDS011;45321;53.200;5.814;2024-03-07T06:46:30;32.97;;;23.70;;
59504;SDS011;45321;53.200;5.814;2024-03-07T06:48:57;29.48;;;22.95;;
59504;SDS011;45321;53.200;5.814;2024-03-07T06:51:23;28.50;;;23.40;;
59504;SDS011;45321;53.200;5.814;2024-03-07T06:53:49;30.80;;;24.95;;
59504;SDS011;45321;53.200;5.814;2024-03-07T06:56:15;31.88;;;24.80;;
59504;SDS011;45321;53.200;5.814;2024-03-07T06:58:42;31.65;;;24.45;;
59504;SDS011;45321;53.200;5.814;2024-03-07T07:01:09;28.52;;;23.33;;
59504;SDS011;45321;53.200;5.814;2024-03-07T07:03:37;29.55;;;23.92;;
59504;SDS011;45321;53.200;5.814;2024-03-07T07:06:03;32.58;;;24.70;;
59504;SDS011;45321;53.200;5.814;2024-03-07T07:08:32;33.03;;;25.17;;
59504;SDS011;45321;53.200;5.814;2024-03-07T07:10:58;30.48;;;24.38;;
59504;SDS011;45321;53.200;5.814;2024-03-07T07:13:24;30.30;;;24.42;;
59504;SDS011;45321;53.200;5.814;2024-03-07T07:15:50;32.70;;;25.58;;
59504;SDS011;45321;53.200;5.814;2024-03-07T07:18:16;35.67;;;27.00;;
59504;SDS011;45321;53.200;5.814;2024-03-07T07:20:42;34.95;;;26.38;;
59504;SDS011;45321;53.200;5.814;2024-03-07T07:23:08;35.25;;;27.15;;
59504;SDS011;45321;53.200;5.814;2024-03-07T07:25:33;34.85;;;26.80;;
59504;SDS011;45321;53.200;5.814;2024-03-07T07:28:00;38.47;;;28.13;;
59504;SDS011;45321;53.200;5.814;2024-03-07T07:30:26;35.10;;;27.10;;
59504;SDS011;45321;53.200;5.814;2024-03-07T07:32:52;35.53;;;28.08;;
59504;SDS011;45321;53.200;5.814;2024-03-07T07:35:21;38.00;;;28.38;;
59504;SDS011;45321;53.200;5.814;2024-03-07T07:37:48;37.22;;;27.35;;
59504;SDS011;45321;53.200;5.814;2024-03-07T07:40:17;35.72;;;28.80;;
59504;SDS011;45321;53.200;5.814;2024-03-07T07:42:44;38.53;;;27.80;;
59504;SDS011;45321;53.200;5.814;2024-03-07T07:45:12;36.30;;;27.88;;
59504;SDS011;45321;53.200;5.814;2024-03-07T07:47:39;36.72;;;28.50;;
59504;SDS011;45321;53.200;5.814;2024-03-07T07:50:08;37.30;;;27.73;;
59504;SDS011;45321;53.200;5.814;2024-03-07T07:52:42;34.72;;;26.77;;
59504;SDS011;45321;53.200;5.814;2024-03-07T07:55:09;37.08;;;28.10;;
59504;SDS011;45321;53.200;5.814;2024-03-07T07:57:45;33.38;;;27.38;;
59504;SDS011;45321;53.200;5.814;2024-03-07T08:00:12;33.85;;;26.63;;
59504;SDS011;45321;53.200;5.814;2024-03-07T08:02:53;33.03;;;26.38;;
59504;SDS011;45321;53.200;5.814;2024-03-07T08:05:27;38.90;;;27.75;;
59504;SDS011;45321;53.200;5.814;2024-03-07T08:08:01;34.60;;;26.92;;
59504;SDS011;45321;53.200;5.814;2024-03-07T08:10:30;36.17;;;28.27;;
59504;SDS011;45321;53.200;5.814;2024-03-07T08:12:56;34.97;;;27.55;;
59504;SDS011;45321;53.200;5.814;2024-03-07T08:15:25;35.83;;;27.88;;
59504;SDS011;45321;53.200;5.814;2024-03-07T08:17:53;36.85;;;27.20;;
59504;SDS011;45321;53.200;5.814;2024-03-07T08:20:20;35.58;;;28.20;;
59504;SDS011;45321;53.200;5.814;2024-03-07T08:22:47;37.35;;;27.80;;
59504;SDS011;45321;53.200;5.814;2024-03-07T08:25:18;39.33;;;28.60;;
59504;SDS011;45321;53.200;5.814;2024-03-07T08:27:52;37.13;;;29.10;;
59504;SDS011;45321;53.200;5.814;2024-03-07T08:30:19;37.05;;;27.95;;
59504;SDS011;45321;53.200;5.814;2024-03-07T08:32:46;38.80;;;29.83;;
59504;SDS011;45321;53.200;5.814;2024-03-07T08:35:14;37.08;;;28.65;;
59504;SDS011;45321;53.200;5.814;2024-03-07T08:37:42;37.30;;;29.60;;
59504;SDS011;45321;53.200;5.814;2024-03-07T08:40:09;39.75;;;29.17;;
59504;SDS011;45321;53.200;5.814;2024-03-07T08:42:40;40.45;;;30.77;;
59504;SDS011;45321;53.200;5.814;2024-03-07T08:45:07;40.70;;;31.08;;
59504;SDS011;45321;53.200;5.814;2024-03-07T08:47:36;40.85;;;30.52;;
59504;SDS011;45321;53.200;5.814;2024-03-07T08:50:03;41.80;;;30.95;;
59504;SDS011;45321;53.200;5.814;2024-03-07T08:52:36;44.67;;;33.25;;
59504;SDS011;45321;53.200;5.814;2024-03-07T08:55:03;45.97;;;33.63;;
59504;SDS011;45321;53.200;5.814;2024-03-07T08:57:29;46.55;;;33.72;;
59504;SDS011;45321;53.200;5.814;2024-03-07T08:59:55;41.50;;;31.63;;
59504;SDS011;45321;53.200;5.814;2024-03-07T09:02:21;45.13;;;31.77;;
59504;SDS011;45321;53.200;5.814;2024-03-07T09:04:47;43.50;;;32.47;;
59504;SDS011;45321;53.200;5.814;2024-03-07T09:07:13;46.97;;;33.20;;
59504;SDS011;45321;53.200;5.814;2024-03-07T09:09:42;45.92;;;32.72;;
59504;SDS011;45321;53.200;5.814;2024-03-07T09:12:10;47.75;;;33.50;;
59504;SDS011;45321;53.200;5.814;2024-03-07T09:14:36;48.38;;;33.35;;
59504;SDS011;45321;53.200;5.814;2024-03-07T09:17:03;51.38;;;34.05;;
59504;SDS011;45321;53.200;5.814;2024-03-07T09:19:30;53.83;;;34.97;;
59504;SDS011;45321;53.200;5.814;2024-03-07T09:21:56;63.40;;;39.42;;
59504;SDS011;45321;53.200;5.814;2024-03-07T09:24:22;66.43;;;40.25;;
59504;SDS011;45321;53.200;5.814;2024-03-07T09:26:50;74.78;;;43.70;;
59504;SDS011;45321;53.200;5.814;2024-03-07T09:29:17;73.00;;;44.00;;
59504;SDS011;45321;53.200;5.814;2024-03-07T09:31:46;68.55;;;42.42;;
59504;SDS011;45321;53.200;5.814;2024-03-07T09:34:13;64.97;;;39.35;;
59504;SDS011;45321;53.200;5.814;2024-03-07T09:36:40;56.47;;;37.72;;
59504;SDS011;45321;53.200;5.814;2024-03-07T09:39:06;50.20;;;32.88;;
59504;SDS011;45321;53.200;5.814;2024-03-07T09:41:33;51.17;;;34.63;;
59504;SDS011;45321;53.200;5.814;2024-03-07T09:43:59;52.03;;;34.67;;
59504;SDS011;45321;53.200;5.814;2024-03-07T09:46:26;49.85;;;34.65;;
59504;SDS011;45321;53.200;5.814;2024-03-07T09:48:52;44.05;;;31.65;;
59504;SDS011;45321;53.200;5.814;2024-03-07T09:51:22;42.80;;;31.27;;
59504;SDS011;45321;53.200;5.814;2024-03-07T09:53:49;45.42;;;31.35;;
59504;SDS011;45321;53.200;5.814;2024-03-07T09:56:20;38.42;;;28.20;;
59504;SDS011;45321;53.200;5.814;2024-03-07T09:58:50;38.85;;;28.33;;
59504;SDS011;45321;53.200;5.814;2024-03-07T10:01:20;42.38;;;28.73;;
59504;SDS011;45321;53.200;5.814;2024-03-07T10:03:47;37.85;;;27.75;;
59504;SDS011;45321;53.200;5.814;2024-03-07T10:06:15;41.55;;;29.20;;
59504;SDS011;45321;53.200;5.814;2024-03-07T10:08:42;40.95;;;28.67;;
59504;SDS011;45321;53.200;5.814;2024-03-07T10:11:08;37.10;;;26.85;;
59504;SDS011;45321;53.200;5.814;2024-03-07T10:13:34;37.78;;;26.67;;
59504;SDS011;45321;53.200;5.814;2024-03-07T10:16:03;38.90;;;27.52;;
59504;SDS011;45321;53.200;5.814;2024-03-07T10:18:30;40.70;;;29.10;;
59504;SDS011;45321;53.200;5.814;2024-03-07T10:20:57;42.15;;;30.50;;
59504;SDS011;45321;53.200;5.814;2024-03-07T10:23:23;45.95;;;29.80;;
59504;SDS011;45321;53.200;5.814;2024-03-07T10:25:49;46.15;;;31.35;;
59504;SDS011;45321;53.200;5.814;2024-03-07T10:28:18;45.95;;;30.35;;
59504;SDS011;45321;53.200;5.814;2024-03-07T10:30:46;48.65;;;32.63;;
59504;SDS011;45321;53.200;5.814;2024-03-07T10:33:15;53.20;;;34.33;;
59504;SDS011;45321;53.200;5.814;2024-03-07T10:35:42;49.40;;;32.67;;
59504;SDS011;45321;53.200;5.814;2024-03-07T10:38:08;49.92;;;32.88;;
59504;SDS011;45321;53.200;5.814;2024-03-07T10:40:37;51.30;;;31.95;;
59504;SDS011;45321;53.200;5.814;2024-03-07T10:43:07;53.97;;;34.22;;
59504;SDS011;45321;53.200;5.814;2024-03-07T10:45:45;53.97;;;32.45;;
59504;SDS011;45321;53.200;5.814;2024-03-07T10:48:12;50.17;;;33.55;;
59504;SDS011;45321;53.200;5.814;2024-03-07T10:50:41;47.90;;;31.55;;
59504;SDS011;45321;53.200;5.814;2024-03-07T10:59:19;40.10;;;26.67;;
59504;SDS011;45321;53.200;5.814;2024-03-07T11:04:52;42.45;;;27.30;;
59504;SDS011;45321;53.200;5.814;2024-03-07T11:07:22;39.90;;;27.27;;
59504;SDS011;45321;53.200;5.814;2024-03-07T11:09:49;37.88;;;25.77;;
59504;SDS011;45321;53.200;5.814;2024-03-07T11:12:17;36.97;;;25.17;;
59504;SDS011;45321;53.200;5.814;2024-03-07T11:14:49;36.15;;;25.85;;
59504;SDS011;45321;53.200;5.814;2024-03-07T11:17:17;40.10;;;27.25;;
59504;SDS011;45321;53.200;5.814;2024-03-07T11:19:45;40.85;;;26.25;;
59504;SDS011;45321;53.200;5.814;2024-03-07T11:22:27;42.20;;;28.20;;
59504;SDS011;45321;53.200;5.814;2024-03-07T11:25:01;39.58;;;25.65;;
59504;SDS011;45321;53.200;5.814;2024-03-07T11:27:36;35.95;;;25.15;;
59504;SDS011;45321;53.200;5.814;2024-03-07T11:30:07;40.55;;;26.90;;
59504;SDS011;45321;53.200;5.814;2024-03-07T11:32:34;40.17;;;26.80;;
59504;SDS011;45321;53.200;5.814;2024-03-07T11:35:04;39.38;;;25.63;;
59504;SDS011;45321;53.200;5.814;2024-03-07T11:37:42;32.42;;;22.98;;
59504;SDS011;45321;53.200;5.814;2024-03-07T11:40:13;36.15;;;24.85;;
59504;SDS011;45321;53.200;5.814;2024-03-07T11:45:26;32.85;;;22.77;;
59504;SDS011;45321;53.200;5.814;2024-03-07T11:47:58;33.30;;;23.80;;
59504;SDS011;45321;53.200;5.814;2024-03-07T11:50:40;33.20;;;23.13;;
59504;SDS011;45321;53.200;5.814;2024-03-07T11:53:08;31.30;;;22.02;;
59504;SDS011;45321;53.200;5.814;2024-03-07T11:55:35;32.78;;;22.60;;
59504;SDS011;45321;53.200;5.814;2024-03-07T12:00:46;29.23;;;20.25;;
59504;SDS011;45321;53.200;5.814;2024-03-07T12:03:16;32.13;;;22.88;;
59504;SDS011;45321;53.200;5.814;2024-03-07T12:05:46;26.15;;;20.17;;
59504;SDS011;45321;53.200;5.814;2024-03-07T12:08:13;26.95;;;19.95;;
59504;SDS011;45321;53.200;5.814;2024-03-07T12:10:41;23.92;;;18.83;;
59504;SDS011;45321;53.200;5.814;2024-03-07T12:13:09;23.52;;;17.80;;
59504;SDS011;45321;53.200;5.814;2024-03-07T12:15:41;24.27;;;18.70;;
59504;SDS011;45321;53.200;5.814;2024-03-07T12:18:07;24.70;;;18.55;;
59504;SDS011;45321;53.200;5.814;2024-03-07T12:20:38;24.10;;;18.65;;
59504;SDS011;45321;53.200;5.814;2024-03-07T12:23:06;24.80;;;18.40;;
59504;SDS011;45321;53.200;5.814;2024-03-07T12:25:37;27.45;;;19.90;;
59504;SDS011;45321;53.200;5.814;2024-03-07T12:28:10;26.17;;;20.35;;
59504;SDS011;45321;53.200;5.814;2024-03-07T12:30:47;29.50;;;22.42;;
59504;SDS011;45321;53.200;5.814;2024-03-07T12:33:17;24.83;;;18.38;;
59504;SDS011;45321;53.200;5.814;2024-03-07T12:35:45;26.00;;;19.08;;
59504;SDS011;45321;53.200;5.814;2024-03-07T12:38:13;26.30;;;20.30;;
59504;SDS011;45321;53.200;5.814;2024-03-07T12:40:41;31.80;;;23.33;;
59504;SDS011;45321;53.200;5.814;2024-03-07T12:48:18;41.38;;;29.10;;
59504;SDS011;45321;53.200;5.814;2024-03-07T12:50:46;28.88;;;22.67;;
59504;SDS011;45321;53.200;5.814;2024-03-07T12:53:19;35.10;;;26.27;;
59504;SDS011;45321;53.200;5.814;2024-03-07T12:55:47;27.90;;;21.35;;
59504;SDS011;45321;53.200;5.814;2024-03-07T12:58:13;28.63;;;22.90;;
59504;SDS011;45321;53.200;5.814;2024-03-07T13:00:40;30.60;;;22.25;;
59504;SDS011;45321;53.200;5.814;2024-03-07T13:03:07;25.25;;;20.05;;
59504;SDS011;45321;53.200;5.814;2024-03-07T13:05:39;30.63;;;19.85;;
59504;SDS011;45321;53.200;5.814;2024-03-07T13:08:06;29.23;;;22.20;;
59504;SDS011;45321;53.200;5.814;2024-03-07T13:10:40;34.88;;;23.60;;
59504;SDS011;45321;53.200;5.814;2024-03-07T13:13:07;29.15;;;21.05;;
59504;SDS011;45321;53.200;5.814;2024-03-07T13:15:36;31.52;;;24.35;;
59504;SDS011;45321;53.200;5.814;2024-03-07T13:18:03;37.80;;;28.13;;
59504;SDS011;45321;53.200;5.814;2024-03-07T13:20:34;32.50;;;24.15;;
59504;SDS011;45321;53.200;5.814;2024-03-07T13:23:00;30.90;;;21.70;;
59504;SDS011;45321;53.200;5.814;2024-03-07T13:25:26;27.02;;;20.83;;
59504;SDS011;45321;53.200;5.814;2024-03-07T13:30:24;29.05;;;20.33;;
59504;SDS011;45321;53.200;5.814;2024-03-07T13:32:54;31.23;;;23.45;;
59504;SDS011;45321;53.200;5.814;2024-03-07T13:35:21;27.67;;;20.15;;
59504;SDS011;45321;53.200;5.814;2024-03-07T13:37:48;36.17;;;25.65;;
59504;SDS011;45321;53.200;5.814;2024-03-07T13:40:15;35.88;;;24.45;;
59504;SDS011;45321;53.200;5.814;2024-03-07T13:45:24;33.55;;;23.83;;
59504;SDS011;45321;53.200;5.814;2024-03-07T13:47:52;27.63;;;20.58;;
59504;SDS011;45321;53.200;5.814;2024-03-07T13:50:20;33.78;;;23.88;;
59504;SDS011;45321;53.200;5.814;2024-03-07T13:52:56;30.00;;;20.67;;
59504;SDS011;45321;53.200;5.814;2024-03-07T14:06:33;28.30;;;19.40;;
59504;SDS011;45321;53.200;5.814;2024-03-07T14:18:10;27.08;;;19.23;;
59504;SDS011;45321;53.200;5.814;2024-03-07T14:24:08;25.98;;;18.70;;
59504;SDS011;45321;53.200;5.814;2024-03-07T14:33:11;28.38;;;20.00;;
59504;SDS011;45321;53.200;5.814;2024-03-07T14:35:58;33.97;;;21.58;;
59504;SDS011;45321;53.200;5.814;2024-03-07T14:41:09;34.22;;;23.38;;
59504;SDS011;45321;53.200;5.814;2024-03-07T14:43:37;32.92;;;23.77;;
59504;SDS011;45321;53.200;5.814;2024-03-07T14:46:04;27.45;;;20.13;;
59504;SDS011;45321;53.200;5.814;2024-03-07T14:48:30;29.02;;;21.30;;
59504;SDS011;45321;53.200;5.814;2024-03-07T14:50:57;35.30;;;22.58;;
59504;SDS011;45321;53.200;5.814;2024-03-07T14:53:23;43.17;;;27.98;;
59504;SDS011;45321;53.200;5.814;2024-03-07T14:55:50;31.40;;;21.27;;
59504;SDS011;45321;53.200;5.814;2024-03-07T14:58:17;33.70;;;23.92;;
59504;SDS011;45321;53.200;5.814;2024-03-07T15:00:43;35.08;;;24.92;;
59504;SDS011;45321;53.200;5.814;2024-03-07T15:03:09;36.67;;;25.52;;
59504;SDS011;45321;53.200;5.814;2024-03-07T15:05:39;31.13;;;23.17;;
59504;SDS011;45321;53.200;5.814;2024-03-07T15:08:16;29.80;;;20.77;;
59504;SDS011;45321;53.200;5.814;2024-03-07T15:10:45;34.03;;;23.70;;
59504;SDS011;45321;53.200;5.814;2024-03-07T15:13:17;25.88;;;18.50;;
59504;SDS011;45321;53.200;5.814;2024-03-07T15:15:43;23.08;;;17.33;;
59504;SDS011;45321;53.200;5.814;2024-03-07T15:18:09;28.50;;;19.05;;
59504;SDS011;45321;53.200;5.814;2024-03-07T15:20:35;27.85;;;20.42;;
59504;SDS011;45321;53.200;5.814;2024-03-07T15:23:02;28.13;;;18.52;;